アスタナ の空港の天気 - METARとTAF

アスタナ国際空港 ( UACC / TSE ) - カザフスタン アスタナ
飛行場実況気象(Metar)
観測時間05/23 06:30 QYZT (05/23 00:30 UTC)
風向・風速北北西 6m/s
視程10km以上
天気現象
全天の8割程度の雲 雲底高度 910m
気温6℃
湿度76%
気圧1011hPa
METARUACC 230030Z 34006MPS 300V360 9999 BKN030 06/02 Q1011 R04/15//65 NOSIG RMK QFE727/0970
過去の天気等 Google飛行場航空写真 Wunderground天気予報

過去48時間のMETAR

飛行場予報(TAF)
発表時間: 5/23 05:00 QYZT (5/22 23:00 UTC)
予報対象時間: 23日6時 QYZT ~ 24日6時 QYZT
風向・風速北北西 10m/s 瞬間風速 15m/s
視程10km以上
全天の4割程度の積乱雲 雲底高度 610m
全天の8割程度の雲 雲底高度 3,050m
23日6時 QYZT ~ 23日12時 QYZT に一時的に
風向・風速北北西 16m/s 瞬間風速 21m/s
天気現象弱いしゅう雨
全天の4割程度の雲 雲底高度 460m
全天の8割程度の積乱雲 雲底高度 610m
23日12時 QYZT ~ 23日20時 QYZT に一時的に
風向・風速北 13m/s 瞬間風速 18m/s
23日20時 QYZT ~ 23日22時 QYZT に徐々に
風向・風速西北西 6m/s
全天の4割程度の雲 雲底高度 910m
全天の8割程度の雲 雲底高度 3,050m
TAF UACC 222300Z 2300/2324 34010G15MPS 9999 SCT020CB BKN100 TX12/2309Z TN03/2224Z
TEMPO 2300/2306 33016G21MPS -SHRA SCT015 BKN020CB
TEMPO 2306/2314 35013G18MPS
BECMG 2314/2316 29006MPS SCT030 BKN100